Terminal Aerodrome Forecast
Issued by NWS Mt. Holly, NJ

Home | Current Version | Previous Version | Text Only | Print | Product List | Glossary On
Versions: 1 2 3 4 5 6 7 8 9 10 11 12 13 14 15 16 17 18 19 20 21 22
000
FTUS41 KPHI 281720
TAFTTN
TAF
KTTN 281720Z 2818/2918 08004KT 3SM RA SCT008 OVC010
     FM282000 04005KT P6SM OVC003
     FM282200 03004KT 2SM SHRA BKN003 OVC010
     FM290300 03004KT P6SM OVC003 PROB30 2903/2904 4SM -SHRA
     FM290500 36005KT P6SM BKN008 OVC015
     FM290700 35008KT P6SM BKN015 BKN050
     FM291000 35011KT P6SM FEW070 SCT250=

USA.gov is the U.S. government's official web portal to all federal, state and local government web resources and services.